createdAt,value
2018-01-17T00:00:36.500Z,2.70
2018-01-17T00:03:03.958Z,2.70
2018-01-17T00:05:31.417Z,2.60
2018-01-17T00:07:58.878Z,2.60
2018-01-17T00:10:27.104Z,2.50
2018-01-17T00:12:54.607Z,2.50
2018-01-17T00:15:22.078Z,2.50
2018-01-17T00:17:50.290Z,2.40
2018-01-17T00:20:17.748Z,2.40
2018-01-17T00:22:45.204Z,2.40
2018-01-17T00:25:13.665Z,2.30
2018-01-17T00:27:41.124Z,2.30
2018-01-17T00:30:09.218Z,2.20
2018-01-17T00:32:36.693Z,2.20
2018-01-17T00:35:04.174Z,2.30
2018-01-17T00:37:31.647Z,2.20
2018-01-17T00:39:59.433Z,2.20
2018-01-17T00:42:26.892Z,2.30
2018-01-17T00:44:54.344Z,2.30
2018-01-17T00:47:21.780Z,2.40
2018-01-17T00:49:49.240Z,2.60
2018-01-17T00:52:18.516Z,2.60
2018-01-17T00:54:45.976Z,2.60
2018-01-17T00:57:14.037Z,2.60
2018-01-17T00:59:41.494Z,2.50
2018-01-17T01:02:08.940Z,2.50
2018-01-17T01:04:36.393Z,2.50
2018-01-17T01:07:03.849Z,2.60
2018-01-17T01:09:31.317Z,2.60
2018-01-17T01:11:58.786Z,2.60
2018-01-17T01:14:27.194Z,2.80
2018-01-17T01:16:54.644Z,2.70
2018-01-17T01:19:22.100Z,2.70
2018-01-17T01:21:50.339Z,2.80
2018-01-17T01:24:17.795Z,2.80
2018-01-17T01:26:45.248Z,2.90
2018-01-17T01:29:12.711Z,3.00
2018-01-17T01:31:40.167Z,3.10
2018-01-17T01:34:07.633Z,3.10
2018-01-17T01:36:36.712Z,3.10
2018-01-17T01:39:04.165Z,3.10
2018-01-17T01:41:31.621Z,3.20
2018-01-17T01:43:59.094Z,3.20
2018-01-17T01:46:26.557Z,3.30
2018-01-17T01:49:01.487Z,3.30
2018-01-17T01:51:29.767Z,3.40
2018-01-17T01:53:57.996Z,3.40
2018-01-17T01:56:25.455Z,3.40
2018-01-17T01:58:52.926Z,3.40
2018-01-17T02:01:20.403Z,3.40
2018-01-17T02:03:48.617Z,3.40
2018-01-17T02:06:16.075Z,3.40
2018-01-17T02:08:43.534Z,3.40
2018-01-17T02:11:10.976Z,3.40
2018-01-17T02:13:39.424Z,3.40
2018-01-17T02:16:06.869Z,3.40
2018-01-17T02:18:35.300Z,3.40
2018-01-17T02:21:02.756Z,3.40
2018-01-17T02:23:30.218Z,3.50
2018-01-17T02:25:59.302Z,3.40
2018-01-17T02:28:26.763Z,3.40
2018-01-17T02:30:54.219Z,3.40
2018-01-17T02:33:21.684Z,3.40
2018-01-17T02:35:49.136Z,3.40
2018-01-17T02:38:16.593Z,3.40
2018-01-17T02:40:44.044Z,3.40
2018-01-17T02:43:11.512Z,3.40
2018-01-17T02:45:38.977Z,3.30
2018-01-17T02:48:07.378Z,3.30
2018-01-17T02:50:34.829Z,3.20
2018-01-17T02:53:02.280Z,3.20
2018-01-17T02:55:30.517Z,3.20
2018-01-17T02:57:57.967Z,3.20
2018-01-17T03:00:25.424Z,3.20
2018-01-17T03:02:52.888Z,3.20
2018-01-17T03:05:20.344Z,3.20
2018-01-17T03:07:48.680Z,3.20
2018-01-17T03:10:16.869Z,3.30
2018-01-17T03:12:44.312Z,3.30
2018-01-17T03:15:11.784Z,3.30
2018-01-17T03:17:40.004Z,3.30
2018-01-17T03:20:07.471Z,3.30
2018-01-17T03:22:34.913Z,3.30
2018-01-17T03:25:02.435Z,3.30
2018-01-17T03:27:29.867Z,3.30
2018-01-17T03:29:57.348Z,3.20
2018-01-17T03:32:26.596Z,3.20
2018-01-17T03:34:54.065Z,3.20
2018-01-17T03:37:21.521Z,3.10
2018-01-17T03:39:48.972Z,3.10
2018-01-17T03:42:16.443Z,3.10
2018-01-17T03:44:43.894Z,3.10
2018-01-17T03:47:11.351Z,3.10
2018-01-17T03:49:38.807Z,3.10
2018-01-17T03:52:06.268Z,3.20
2018-01-17T03:54:34.574Z,3.10
2018-01-17T03:57:02.808Z,3.10
2018-01-17T03:59:30.260Z,3.10
2018-01-17T04:01:57.744Z,3.00
2018-01-17T04:04:25.237Z,3.00
2018-01-17T04:06:52.662Z,2.90
2018-01-17T04:09:20.128Z,2.80
2018-01-17T04:11:47.577Z,2.80
2018-01-17T04:14:15.066Z,2.80
2018-01-17T04:16:43.537Z,2.80
2018-01-17T04:19:10.987Z,2.80
2018-01-17T04:21:40.085Z,2.70
2018-01-17T04:24:08.339Z,2.80
2018-01-17T04:26:35.799Z,2.80
2018-01-17T04:29:04.026Z,2.80
2018-01-17T04:31:31.472Z,2.80
2018-01-17T04:33:58.935Z,2.80
2018-01-17T04:36:26.438Z,2.80
2018-01-17T04:38:53.869Z,2.90
2018-01-17T04:41:25.398Z,2.90
2018-01-17T04:43:53.707Z,3.00
2018-01-17T04:46:21.160Z,3.00
2018-01-17T04:48:48.672Z,1.90
2018-01-17T04:51:16.120Z,1.30
2018-01-17T04:53:44.330Z,1.10
2018-01-17T04:56:11.833Z,1.10
2018-01-17T04:58:40.049Z,1.10
2018-01-17T05:01:07.508Z,1.00
2018-01-17T05:03:34.989Z,1.00
2018-01-17T05:06:02.576Z,1.10
2018-01-17T05:08:29.980Z,1.00
2018-01-17T05:10:57.441Z,0.90
2018-01-17T05:13:25.894Z,0.90
2018-01-17T05:15:54.104Z,1.00
2018-01-17T05:18:21.577Z,1.00
2018-01-17T05:20:49.052Z,1.00
2018-01-17T05:23:16.515Z,0.90
2018-01-17T05:25:43.967Z,0.90
2018-01-17T05:28:11.479Z,0.90
2018-01-17T05:30:38.925Z,0.90
2018-01-17T05:33:06.383Z,0.90
2018-01-17T05:35:33.863Z,0.90
2018-01-17T05:38:01.324Z,0.90
2018-01-17T05:40:28.785Z,0.90
2018-01-17T05:42:56.272Z,0.90
2018-01-17T05:45:24.652Z,1.00
2018-01-17T05:47:53.680Z,1.00
2018-01-17T05:50:23.053Z,1.10
2018-01-17T05:52:51.260Z,1.20
2018-01-17T05:55:18.817Z,1.20
2018-01-17T05:57:46.276Z,1.20
2018-01-17T06:00:13.739Z,1.20
2018-01-17T06:02:41.188Z,1.20
2018-01-17T06:05:08.668Z,1.10
2018-01-17T06:07:36.125Z,1.00
2018-01-17T06:10:03.593Z,1.00
2018-01-17T06:12:31.368Z,1.00
2018-01-17T06:14:58.812Z,0.90
2018-01-17T06:17:26.511Z,0.90
2018-01-17T06:19:54.734Z,1.00
2018-01-17T06:22:22.253Z,1.00
2018-01-17T06:24:49.705Z,1.10
2018-01-17T06:27:17.170Z,1.20
2018-01-17T06:29:44.648Z,1.20
2018-01-17T06:32:12.190Z,1.20
2018-01-17T06:34:40.729Z,1.20
2018-01-17T06:37:08.185Z,1.30
2018-01-17T06:39:35.629Z,1.30
2018-01-17T06:42:03.802Z,1.20
2018-01-17T06:44:31.252Z,1.10
2018-01-17T06:46:58.732Z,1.00
2018-01-17T06:49:26.996Z,0.80
2018-01-17T06:51:54.444Z,0.70
2018-01-17T06:54:22.117Z,0.60
2018-01-17T06:56:51.370Z,0.50
2018-01-17T06:59:18.835Z,0.50
2018-01-17T07:01:46.328Z,0.50
2018-01-17T07:04:13.814Z,0.50
2018-01-17T07:06:42.053Z,0.50
2018-01-17T07:09:09.516Z,0.50
2018-01-17T07:11:36.972Z,0.60
2018-01-17T07:14:04.777Z,0.60
2018-01-17T07:16:33.442Z,0.70
2018-01-17T07:19:02.179Z,0.60
2018-01-17T07:21:29.679Z,0.70
2018-01-17T07:23:57.128Z,0.70
2018-01-17T07:26:24.588Z,0.70
2018-01-17T07:28:52.032Z,0.70
2018-01-17T07:31:19.488Z,0.70
2018-01-17T07:33:46.938Z,0.70
2018-01-17T07:36:14.401Z,0.80
2018-01-17T07:38:41.861Z,0.80
2018-01-17T07:41:09.337Z,0.80
2018-01-17T07:43:36.772Z,0.80
2018-01-17T07:46:04.224Z,0.80
2018-01-17T07:48:31.689Z,0.80
2018-01-17T07:51:00.256Z,0.90
2018-01-17T07:53:27.681Z,0.90
2018-01-17T07:55:55.876Z,0.90
2018-01-17T07:58:23.967Z,0.90
2018-01-17T08:00:51.504Z,1.00
2018-01-17T08:03:20.449Z,1.00
2018-01-17T08:05:48.693Z,1.10
2018-01-17T08:08:16.179Z,1.10
2018-01-17T08:10:44.998Z,1.20
2018-01-17T08:13:12.459Z,1.20
2018-01-17T08:15:39.944Z,1.20
2018-01-17T08:18:08.275Z,1.20
2018-01-17T08:20:35.778Z,1.30
2018-01-17T08:23:03.232Z,1.20
2018-01-17T08:25:30.913Z,1.30
2018-01-17T08:27:58.368Z,1.20
2018-01-17T08:30:25.824Z,1.30
2018-01-17T08:32:54.066Z,2.00
2018-01-17T08:35:21.595Z,2.00
2018-01-17T08:37:50.378Z,2.00
2018-01-17T08:40:18.601Z,1.70
2018-01-17T08:42:46.104Z,1.70
2018-01-17T08:45:14.387Z,1.40
2018-01-17T08:47:41.878Z,1.40
2018-01-17T08:50:09.406Z,1.30
2018-01-17T08:52:38.333Z,1.40
2018-01-17T08:55:05.830Z,1.50
2018-01-17T08:57:34.060Z,1.60
2018-01-17T09:00:01.554Z,1.60
2018-01-17T09:02:29.824Z,1.50
2018-01-17T09:04:57.277Z,1.50
2018-01-17T09:07:24.851Z,1.50
2018-01-17T09:09:53.105Z,1.40
2018-01-17T09:12:20.597Z,1.40
2018-01-17T09:14:49.532Z,1.40
2018-01-17T09:17:18.208Z,1.40
2018-01-17T09:19:45.905Z,1.40
2018-01-17T09:22:14.160Z,1.50
2018-01-17T09:24:42.241Z,1.50
2018-01-17T09:27:09.797Z,1.50
2018-01-17T09:29:37.276Z,1.50
2018-01-17T09:32:04.757Z,1.50
2018-01-17T09:34:32.367Z,1.50
2018-01-17T09:37:00.421Z,1.50
2018-01-17T09:39:29.798Z,1.50
2018-01-17T09:41:57.279Z,1.70
2018-01-17T09:44:25.545Z,2.40
2018-01-17T09:46:53.038Z,2.80
2018-01-17T09:49:20.544Z,2.90
2018-01-17T09:51:48.426Z,2.80
2018-01-17T09:54:15.873Z,3.00
2018-01-17T09:56:44.245Z,3.00
2018-01-17T09:59:11.698Z,2.80
2018-01-17T10:01:39.216Z,2.60
2018-01-17T10:04:06.663Z,2.50
2018-01-17T10:06:35.708Z,3.00
2018-01-17T10:09:03.179Z,3.00
2018-01-17T10:11:30.668Z,3.20
2018-01-17T10:13:58.114Z,3.00
2018-01-17T10:16:27.019Z,3.10
2018-01-17T10:18:54.477Z,2.90
2018-01-17T10:21:21.954Z,2.70
2018-01-17T10:23:49.392Z,2.50
2018-01-17T10:26:16.885Z,2.40
2018-01-17T10:28:45.108Z,2.00
2018-01-17T10:31:13.370Z,1.90
2018-01-17T10:33:40.834Z,1.90
2018-01-17T10:36:08.315Z,1.70
2018-01-17T10:38:35.762Z,1.70
2018-01-17T10:41:03.212Z,1.80
2018-01-17T10:43:30.665Z,1.80
2018-01-17T10:45:58.145Z,1.80
2018-01-17T10:48:26.499Z,1.90
2018-01-17T10:50:53.954Z,1.80
2018-01-17T10:53:21.414Z,1.90
2018-01-17T10:55:48.874Z,1.90
2018-01-17T10:58:16.360Z,2.00
2018-01-17T11:00:46.593Z,2.00
2018-01-17T11:03:14.878Z,1.60
2018-01-17T11:05:44.028Z,1.50
2018-01-17T11:08:11.522Z,1.40
2018-01-17T11:10:39.049Z,1.40
2018-01-17T11:13:06.516Z,1.60
2018-01-17T11:15:35.006Z,1.70
2018-01-17T11:18:02.472Z,1.90
2018-01-17T11:20:30.798Z,2.10
2018-01-17T11:22:58.417Z,2.10
2018-01-17T11:25:26.640Z,2.10
2018-01-17T11:27:55.700Z,2.10
2018-01-17T11:30:23.957Z,2.20
2018-01-17T11:32:52.191Z,2.30
2018-01-17T11:35:19.667Z,2.20
2018-01-17T11:37:49.508Z,2.40
2018-01-17T11:40:18.407Z,2.40
2018-01-17T11:42:46.651Z,2.40
2018-01-17T11:45:14.685Z,2.40
2018-01-17T11:47:42.221Z,2.40
2018-01-17T11:50:10.855Z,2.40
2018-01-17T11:52:38.309Z,2.40
2018-01-17T11:55:06.277Z,2.40
2018-01-17T11:57:33.849Z,2.40
2018-01-17T12:00:02.092Z,2.40
2018-01-17T12:02:29.612Z,2.40
2018-01-17T12:05:09.929Z,2.40
2018-01-17T12:07:38.083Z,2.40
2018-01-17T12:10:06.564Z,2.40
2018-01-17T12:12:34.058Z,2.40
2018-01-17T12:15:02.021Z,2.40
2018-01-17T12:17:30.469Z,2.50
2018-01-17T12:19:57.911Z,2.70
2018-01-17T12:22:25.404Z,2.90
2018-01-17T12:24:53.540Z,3.10
2018-01-17T12:27:20.996Z,3.10
2018-01-17T12:29:48.480Z,3.20
2018-01-17T12:32:15.952Z,3.20
2018-01-17T12:34:46.690Z,3.10
2018-01-17T12:37:21.431Z,3.10
2018-01-17T12:39:49.658Z,3.20
2018-01-17T12:42:18.402Z,3.20
2018-01-17T12:44:46.628Z,3.30
2018-01-17T12:47:15.781Z,3.30
2018-01-17T12:49:43.366Z,3.40
2018-01-17T12:52:12.172Z,3.50
2018-01-17T12:54:39.640Z,3.60
2018-01-17T12:57:07.099Z,3.60
2018-01-17T12:59:35.377Z,3.60
2018-01-17T13:02:02.840Z,3.60
2018-01-17T13:04:30.300Z,3.60
2018-01-17T13:06:57.776Z,3.60
2018-01-17T13:09:28.238Z,3.60
2018-01-17T13:11:55.689Z,3.60
2018-01-17T13:14:23.178Z,3.70
2018-01-17T13:16:50.641Z,3.80
2018-01-17T13:19:18.159Z,3.90
2018-01-17T13:21:45.620Z,4.00
2018-01-17T13:24:13.436Z,4.00
2018-01-17T13:26:40.899Z,3.90
2018-01-17T13:29:08.346Z,3.80
2018-01-17T13:31:35.876Z,3.80
2018-01-17T13:34:03.326Z,3.80
2018-01-17T13:36:32.091Z,3.80
2018-01-17T13:38:59.535Z,3.80
2018-01-17T13:41:27.007Z,3.90
2018-01-17T13:43:54.459Z,3.90
2018-01-17T13:46:25.517Z,3.90
2018-01-17T13:48:53.801Z,3.80
2018-01-17T13:51:21.270Z,3.80
2018-01-17T13:53:49.529Z,3.80
2018-01-17T13:56:16.993Z,3.80
2018-01-17T13:58:44.537Z,3.90
2018-01-17T14:01:12.011Z,4.00
2018-01-17T14:03:39.480Z,4.00
2018-01-17T14:06:06.954Z,3.90
2018-01-17T14:08:34.418Z,3.90
2018-01-17T14:11:01.870Z,3.80
2018-01-17T14:13:29.324Z,3.90
2018-01-17T14:16:01.060Z,3.80
2018-01-17T14:18:29.747Z,3.90
2018-01-17T14:20:57.188Z,4.00
2018-01-17T14:23:24.688Z,4.00
2018-01-17T14:25:54.926Z,4.00
2018-01-17T14:28:22.467Z,4.00
2018-01-17T14:30:50.713Z,4.00
2018-01-17T14:33:18.160Z,4.00
2018-01-17T14:35:45.624Z,3.90
2018-01-17T14:38:13.108Z,3.80
2018-01-17T14:40:40.607Z,3.70
2018-01-17T14:43:13.705Z,3.70
2018-01-17T14:45:46.855Z,3.60
2018-01-17T14:48:15.622Z,3.40
2018-01-17T14:50:46.497Z,3.10
2018-01-17T14:53:15.786Z,3.10
2018-01-17T14:55:46.323Z,3.00
2018-01-17T14:58:23.482Z,3.20
2018-01-17T15:00:56.584Z,3.20
2018-01-17T15:03:27.261Z,3.20
2018-01-17T15:06:01.632Z,3.20
2018-01-17T15:08:34.717Z,3.20
2018-01-17T15:11:04.728Z,3.20
2018-01-17T15:13:39.154Z,3.20
2018-01-17T15:16:09.745Z,3.20
2018-01-17T15:19:05.782Z,3.20
2018-01-17T15:21:41.112Z,3.20
2018-01-17T15:24:17.208Z,3.20
2018-01-17T15:26:57.910Z,3.30
2018-01-17T15:29:28.429Z,3.30
2018-01-17T15:31:55.874Z,3.20
2018-01-17T15:34:37.532Z,3.30
2018-01-17T15:37:13.410Z,3.30
2018-01-17T15:39:40.981Z,3.30
2018-01-17T15:42:17.502Z,3.30
2018-01-17T15:45:00.783Z,3.30
2018-01-17T15:47:28.527Z,3.20
2018-01-17T15:49:59.922Z,3.20
2018-01-17T15:52:27.881Z,3.30
2018-01-17T15:55:05.163Z,3.30
2018-01-17T15:57:34.494Z,3.30
2018-01-17T16:00:02.746Z,3.40
2018-01-17T16:02:30.218Z,3.30
2018-01-17T16:04:58.098Z,3.30
2018-01-17T16:07:25.608Z,3.30
2018-01-17T16:09:53.046Z,3.20
2018-01-17T16:12:21.315Z,3.40
2018-01-17T16:14:48.820Z,3.40
2018-01-17T16:17:16.292Z,3.40
2018-01-17T16:19:44.217Z,3.30
2018-01-17T16:22:11.948Z,3.30
2018-01-17T16:24:40.948Z,3.30
2018-01-17T16:27:15.217Z,3.50
2018-01-17T16:29:43.694Z,3.40
2018-01-17T16:32:11.184Z,3.40
2018-01-17T16:34:39.461Z,3.10
2018-01-17T16:37:06.936Z,3.00
2018-01-17T16:39:35.166Z,2.70
2018-01-17T16:42:03.864Z,2.70
2018-01-17T16:44:31.427Z,2.60
2018-01-17T16:46:58.937Z,2.60
2018-01-17T16:49:26.426Z,2.70
2018-01-17T16:51:54.843Z,2.80
2018-01-17T16:54:22.306Z,3.00
2018-01-17T16:56:50.522Z,3.10
2018-01-17T16:59:18.861Z,3.10
2018-01-17T17:01:47.180Z,3.30
2018-01-17T17:04:15.545Z,3.30
2018-01-17T17:06:43.014Z,3.30
2018-01-17T17:09:10.523Z,3.30
2018-01-17T17:11:38.761Z,3.50
2018-01-17T17:14:06.240Z,3.50
2018-01-17T17:16:33.702Z,3.50
2018-01-17T17:19:01.193Z,3.60
2018-01-17T17:21:28.657Z,3.70
2018-01-17T17:23:56.113Z,3.70
2018-01-17T17:26:23.594Z,3.70
2018-01-17T17:28:51.074Z,3.60
2018-01-17T17:31:18.574Z,3.60
2018-01-17T17:33:47.613Z,3.50
2018-01-17T17:36:16.614Z,3.50
2018-01-17T17:38:45.493Z,3.70
2018-01-17T17:41:13.172Z,3.80
2018-01-17T17:43:41.510Z,3.80
2018-01-17T17:46:11.479Z,3.90
2018-01-17T17:48:42.862Z,3.80
2018-01-17T17:51:10.402Z,3.80
2018-01-17T17:53:38.738Z,3.60
2018-01-17T17:56:06.517Z,3.60
2018-01-17T17:58:34.503Z,3.60
2018-01-17T18:01:07.563Z,3.60
2018-01-17T18:03:48.102Z,3.50
2018-01-17T18:06:21.548Z,3.40
2018-01-17T18:08:51.629Z,3.50
2018-01-17T18:11:19.617Z,3.50
2018-01-17T18:13:51.241Z,3.40
2018-01-17T18:16:32.554Z,3.30
2018-01-17T18:19:00.136Z,3.30
2018-01-17T18:21:33.214Z,3.20
2018-01-17T18:24:03.163Z,3.20
2018-01-17T18:29:22.369Z,3.20
2018-01-17T18:31:51.127Z,3.30
2018-01-17T18:34:18.706Z,3.30
2018-01-17T18:36:47.570Z,3.30
2018-01-17T18:39:15.320Z,3.20
2018-01-17T18:41:43.213Z,3.30
2018-01-17T18:44:10.672Z,3.20
2018-01-17T18:46:39.005Z,3.20
2018-01-17T18:49:07.296Z,3.30
2018-01-17T18:51:35.003Z,3.20
2018-01-17T18:54:02.550Z,3.30
2018-01-17T18:56:30.036Z,3.20
2018-01-17T18:58:57.623Z,3.20
2018-01-17T19:01:26.102Z,3.20
2018-01-17T19:03:53.675Z,3.20
2018-01-17T19:06:21.919Z,3.20
2018-01-17T19:08:49.460Z,3.20
2018-01-17T19:11:16.935Z,3.30
2018-01-17T19:13:44.456Z,3.30
2018-01-17T19:16:12.836Z,3.30
2018-01-17T19:18:40.432Z,3.20
2018-01-17T19:21:08.267Z,3.20
2018-01-17T19:23:35.933Z,3.20
2018-01-17T19:26:03.518Z,3.40
2018-01-17T19:28:31.094Z,3.50
2018-01-17T19:30:58.562Z,3.60
2018-01-17T19:33:26.079Z,3.70
2018-01-17T19:35:53.567Z,3.90
2018-01-17T19:38:22.887Z,3.90
2018-01-17T19:40:51.354Z,3.90
2018-01-17T19:43:19.291Z,3.90
2018-01-17T19:45:46.801Z,3.80
2018-01-17T19:48:14.331Z,3.70
2018-01-17T19:50:41.937Z,3.70
2018-01-17T19:53:10.209Z,4.00
2018-01-17T19:55:38.445Z,4.00
2018-01-17T19:58:05.927Z,4.00
2018-01-17T20:00:33.410Z,4.10
2018-01-17T20:03:00.917Z,4.10
2018-01-17T20:05:29.583Z,4.10
2018-01-17T20:07:57.075Z,4.00
2018-01-17T20:10:25.631Z,4.00
2018-01-17T20:12:53.117Z,4.10
2018-01-17T20:15:22.597Z,4.00
2018-01-17T20:17:51.426Z,3.90
2018-01-17T20:20:19.269Z,3.90
2018-01-17T20:22:52.679Z,3.80
2018-01-17T20:25:20.145Z,3.70
2018-01-17T20:27:47.636Z,3.70
2018-01-17T20:30:15.899Z,3.70
2018-01-17T20:32:45.153Z,3.60
2018-01-17T20:35:13.436Z,3.60
2018-01-17T20:37:40.905Z,3.60
2018-01-17T20:40:08.359Z,3.60
2018-01-17T20:42:35.851Z,3.50
2018-01-17T20:45:04.084Z,3.60
2018-01-17T20:47:33.046Z,3.60
2018-01-17T20:50:00.578Z,3.60
2018-01-17T20:52:28.046Z,3.60
2018-01-17T20:54:56.286Z,3.60
2018-01-17T20:57:23.796Z,3.60
2018-01-17T20:59:51.269Z,3.60
2018-01-17T21:02:18.793Z,3.60
2018-01-17T21:04:47.092Z,3.60
2018-01-17T21:07:14.650Z,3.50
2018-01-17T21:09:42.178Z,3.70
2018-01-17T21:12:09.685Z,3.70
2018-01-17T21:14:37.147Z,3.80
2018-01-17T21:17:04.609Z,3.70
2018-01-17T21:19:32.071Z,3.80
2018-01-17T21:21:59.718Z,3.70
2018-01-17T21:24:27.188Z,3.80
2018-01-17T21:26:54.674Z,3.80
2018-01-17T21:29:22.204Z,3.80
2018-01-17T21:31:49.685Z,3.90
2018-01-17T21:34:17.134Z,3.90
2018-01-17T21:36:44.644Z,3.80
2018-01-17T21:39:12.911Z,3.90
2018-01-17T21:41:41.143Z,3.80
2018-01-17T21:44:14.322Z,3.80
2018-01-17T21:46:41.913Z,3.80
2018-01-17T21:49:09.400Z,3.70
2018-01-17T21:51:36.898Z,3.70
2018-01-17T21:54:04.379Z,3.70
2018-01-17T21:56:31.866Z,3.80
2018-01-17T21:58:59.321Z,3.80
2018-01-17T22:01:27.556Z,3.80
2018-01-17T22:03:55.025Z,3.80
2018-01-17T22:06:22.491Z,3.90
2018-01-17T22:08:49.969Z,3.80
2018-01-17T22:11:17.437Z,3.80
2018-01-17T22:13:45.729Z,3.70
2018-01-17T22:16:13.969Z,3.80
2018-01-17T22:18:41.453Z,3.70
2018-01-17T22:21:09.685Z,3.80
2018-01-17T22:23:37.172Z,3.80
2018-01-17T22:26:04.623Z,3.80
2018-01-17T22:28:32.078Z,3.80
2018-01-17T22:30:59.550Z,3.70
2018-01-17T22:33:27.802Z,3.70
2018-01-17T22:35:55.285Z,3.70
2018-01-17T22:38:22.773Z,3.70
2018-01-17T22:40:50.226Z,3.80
2018-01-17T22:43:17.685Z,3.70
2018-01-17T22:45:45.195Z,3.70
2018-01-17T22:48:12.676Z,3.70
2018-01-17T22:50:40.277Z,3.60
2018-01-17T22:53:07.803Z,3.60
2018-01-17T22:55:35.266Z,3.60
2018-01-17T22:58:02.753Z,3.50
2018-01-17T23:00:30.225Z,3.60
2018-01-17T23:02:57.689Z,3.50
2018-01-17T23:05:25.154Z,3.50
2018-01-17T23:07:53.186Z,3.40
2018-01-17T23:10:21.406Z,3.40
2018-01-17T23:12:48.874Z,3.40
2018-01-17T23:15:16.353Z,3.40
2018-01-17T23:17:44.220Z,3.40
2018-01-17T23:20:12.509Z,3.50
2018-01-17T23:22:40.768Z,3.40
2018-01-17T23:25:08.225Z,3.40
2018-01-17T23:27:35.702Z,3.50
2018-01-17T23:30:03.946Z,3.60
2018-01-17T23:32:31.416Z,3.60
2018-01-17T23:34:58.880Z,3.60
2018-01-17T23:37:26.353Z,3.60
2018-01-17T23:39:54.589Z,3.50
2018-01-17T23:42:22.070Z,3.50
2018-01-17T23:44:49.538Z,3.50
2018-01-17T23:47:17.764Z,3.50
2018-01-17T23:49:45.298Z,3.50
2018-01-17T23:52:12.735Z,3.50
2018-01-17T23:54:40.973Z,3.50
2018-01-17T23:57:08.424Z,3.50
2018-01-17T23:59:35.910Z,3.50
